Time;durP1;ratioP1;P1;durP2;ratioP2;P2;SDS_P1;SDS_P2;PMS_P1;PMS_P2;Temp;Humidity;BMP_temperature;BMP_pressure;BME280_temperature;BME280_humidity;BME280_pressure;Samples;Min_cycle;Max_cycle;Signal;HPM_P1;HPM_P2
2023/07/17 00:00:26;;;;;;;0.30;0.30;;;28.90;64.60;;;29.83;47.26;95075.34;5077754;28;20201;-40
2023/07/17 00:02:53;;;;;;;0.30;0.30;;;28.90;63.70;;;29.83;46.63;95084.28;5061294;28;20343;-40
2023/07/17 00:05:22;;;;;;;0.20;0.20;;;28.90;63.90;;;29.82;47.26;95071.84;5078583;28;20197;-40
2023/07/17 00:07:49;;;;;;;0.30;0.30;;;28.90;64.10;;;29.82;47.01;95060.22;5079624;28;20301;-40
2023/07/17 00:10:17;;;;;;;0.20;0.20;;;28.90;64.20;;;29.82;47.44;95069.16;5077479;28;20254;-40
2023/07/17 00:12:44;;;;;;;0.30;0.30;;;28.90;64.20;;;29.82;47.16;95082.66;5078697;28;20237;-41
2023/07/17 00:15:11;;;;;;;0.30;0.30;;;28.90;64.20;;;29.82;47.61;95076.44;5078346;28;20284;-41
2023/07/17 00:17:39;;;;;;;0.20;0.20;;;28.90;64.00;;;29.80;47.01;95065.94;5078334;28;20190;-40
2023/07/17 00:20:11;;;;;;;0.30;0.30;;;28.90;64.00;;;29.80;47.09;95075.97;5078522;28;20206;-41
2023/07/17 00:22:39;;;;;;;0.30;0.30;;;28.90;64.10;;;29.79;47.74;95085.19;5078169;28;20587;-41
2023/07/17 00:25:06;;;;;;;0.30;0.30;;;28.90;64.10;;;29.78;47.56;95080.91;5078202;28;20227;-40
2023/07/17 00:27:35;;;;;;;0.30;0.30;;;28.90;64.20;;;29.77;47.43;95068.47;5077837;28;20202;-40
2023/07/17 00:30:03;;;;;;;0.20;0.20;;;28.80;64.20;;;29.77;47.23;95069.28;5078626;28;20628;-40
2023/07/17 00:32:31;;;;;;;0.30;0.30;;;28.80;64.30;;;29.76;47.85;95072.28;5078022;28;20584;-40
2023/07/17 00:34:58;;;;;;;0.20;0.20;;;28.80;64.30;;;29.75;47.29;95078.78;5077850;28;20193;-40
2023/07/17 00:37:26;;;;;;;0.20;0.20;;;28.80;64.40;;;29.76;48.12;95075.00;5077971;28;20582;-41
2023/07/17 00:39:53;;;;;;;0.20;0.20;;;28.80;64.60;;;29.75;47.65;95060.69;5076796;28;20206;-40
2023/07/17 00:42:22;;;;;;;0.20;0.20;;;28.80;64.60;;;29.75;48.10;95060.69;5076925;28;20206;-40
2023/07/17 00:44:49;;;;;;;0.30;0.30;;;28.80;64.50;;;29.73;48.06;95070.22;5076817;28;20276;-40
2023/07/17 00:47:17;;;;;;;0.30;0.30;;;28.80;64.60;;;29.73;48.02;95094.53;5076809;28;20698;-40
2023/07/17 00:49:47;;;;;;;0.30;0.30;;;28.80;64.40;;;29.70;47.85;95114.88;5093503;28;20543;-41
2023/07/17 00:52:17;;;;;;;0.30;0.30;;;28.80;64.50;;;29.66;47.55;95130.13;5078003;28;20186;-41
2023/07/17 00:54:44;;;;;;;0.20;0.20;;;28.80;64.40;;;29.64;48.04;95122.31;5093636;28;20212;-40
2023/07/17 00:57:15;;;;;;;0.20;0.20;;;28.80;64.60;;;29.62;47.99;95113.72;5076692;28;20221;-40
2023/07/17 00:59:43;;;;;;;0.30;0.30;;;28.80;64.60;;;29.63;47.71;95119.94;5076617;28;20268;-42
2023/07/17 01:02:12;;;;;;;0.20;0.20;;;28.80;65.60;;;29.59;48.60;95110.81;5093423;28;20631;-40
2023/07/17 01:04:47;;;;;;;0.30;0.30;;;28.80;64.60;;;29.57;48.08;95127.38;5077512;28;20206;-40
2023/07/17 01:07:15;;;;;;;0.30;0.30;;;28.80;65.60;;;29.57;47.90;95130.06;5059476;28;20201;-40
2023/07/17 01:09:43;;;;;;;0.30;0.30;;;28.70;64.70;;;29.54;47.93;95127.97;5059842;28;20225;-40
2023/07/17 01:12:10;;;;;;;0.30;0.30;;;28.70;64.60;;;29.53;47.87;95139.91;5076499;28;20203;-41
2023/07/17 01:14:37;;;;;;;0.20;0.20;;;28.70;64.60;;;29.49;48.05;95150.53;5077237;28;20245;-40
2023/07/17 01:17:06;;;;;;;0.30;0.30;;;28.70;64.60;;;29.47;48.08;95150.03;5076206;28;20222;-41
2023/07/17 01:19:34;;;;;;;0.30;0.30;;;28.70;64.70;;;29.45;48.16;95151.44;5059874;28;20203;-40
2023/07/17 01:22:21;;;;;;;0.22;0.22;;;28.60;64.60;;;29.43;48.47;95140.94;5092804;28;20209;-40
2023/07/17 01:24:49;;;;;;;0.20;0.20;;;28.60;64.70;;;29.41;48.32;95129.63;5059837;28;20186;-40
2023/07/17 01:27:18;;;;;;;0.30;0.30;;;28.60;64.70;;;29.39;48.39;95119.16;5076987;28;20240;-41
2023/07/17 01:29:45;;;;;;;0.20;0.20;;;28.60;64.70;;;29.38;48.55;95122.13;5076851;28;20290;-40
2023/07/17 01:32:13;;;;;;;0.20;0.20;;;28.60;64.60;;;29.35;48.52;95109.25;5076673;28;20205;-41
2023/07/17 01:34:41;;;;;;;0.20;0.20;;;28.50;64.60;;;29.34;48.42;95108.44;5076104;28;20651;-41
2023/07/17 01:37:09;;;;;;;0.20;0.20;;;28.50;64.60;;;29.31;47.87;95095.56;5076813;28;20688;-41
2023/07/17 01:39:36;;;;;;;0.30;0.30;;;28.50;64.70;;;29.30;48.36;95090.47;5076674;28;20530;-41
2023/07/17 01:42:03;;;;;;;0.40;0.40;;;28.50;64.70;;;29.26;48.54;95082.16;5075923;28;20748;-40
2023/07/17 01:44:31;;;;;;;0.20;0.20;;;28.50;64.80;;;29.22;48.68;95075.75;5092461;28;20233;-41
2023/07/17 01:46:59;;;;;;;0.20;0.20;;;28.40;64.90;;;29.23;48.37;95082.75;5075977;28;20254;-41
2023/07/17 01:49:26;;;;;;;0.30;0.30;;;28.40;65.10;;;29.23;48.85;95085.47;5076628;28;20234;-41
2023/07/17 01:51:53;;;;;;;0.30;0.30;;;28.40;65.20;;;29.24;48.91;95081.66;5076472;28;20186;-41
2023/07/17 01:54:21;;;;;;;0.20;0.20;;;28.40;65.10;;;29.22;48.28;95084.66;5075557;28;20201;-41
2023/07/17 01:56:48;;;;;;;0.32;0.32;;;28.40;66.00;;;29.20;48.81;95076.06;5076954;28;20274;-41
2023/07/17 01:59:15;;;;;;;0.20;0.20;;;28.40;65.10;;;29.19;48.80;95071.75;5059106;28;20205;-41
2023/07/17 02:01:42;;;;;;;0.25;0.25;;;28.40;65.10;;;29.17;48.94;95078.56;5058697;28;20267;-40
2023/07/17 02:04:10;;;;;;;0.20;0.20;;;28.40;65.10;;;29.17;48.54;95094.78;5092433;28;20661;-40
2023/07/17 02:06:37;;;;;;;0.20;0.20;;;28.40;65.20;;;29.14;49.18;95095.38;5076270;28;20220;-41
2023/07/17 02:09:05;;;;;;;0.30;0.30;;;28.40;65.20;;;29.13;48.78;95089.19;5092199;28;20205;-40
2023/07/17 02:11:32;;;;;;;0.20;0.20;;;28.40;65.30;;;29.12;48.43;95092.22;5075178;28;20267;-40
2023/07/17 02:13:59;;;;;;;0.30;0.30;;;28.30;65.20;;;29.09;48.82;95080.13;5076091;28;20226;-40
2023/07/17 02:16:26;;;;;;;0.20;0.20;;;28.30;65.30;;;29.10;48.89;95083.59;5075209;28;20609;-41
2023/07/17 02:18:54;;;;;;;0.30;0.30;;;28.30;65.20;;;29.08;48.90;95078.53;5074280;28;20212;-40
2023/07/17 02:21:21;;;;;;;0.20;0.20;;;28.30;65.30;;;29.08;49.50;95079.31;5058526;28;20307;-40
2023/07/17 02:23:48;;;;;;;0.30;0.30;;;28.30;65.50;;;29.10;49.21;95083.59;5075914;28;20232;-40
2023/07/17 02:26:16;;;;;;;0.30;0.30;;;28.30;65.60;;;29.09;49.23;95082.81;5074936;28;20264;-40
2023/07/17 02:28:43;;;;;;;0.30;0.30;;;28.30;65.80;;;29.10;49.68;95089.81;5075842;28;20187;-40
2023/07/17 02:31:10;;;;;;;0.30;0.30;;;28.30;65.70;;;29.11;49.83;95101.41;5075052;28;20293;-41
2023/07/17 02:33:38;;;;;;;0.30;0.30;;;28.30;65.70;;;29.10;49.69;95094.41;5075735;28;20205;-41
2023/07/17 02:36:05;;;;;;;0.30;0.30;;;28.30;65.60;;;29.09;49.31;95085.53;5075648;28;20314;-41
2023/07/17 02:38:33;;;;;;;0.30;0.30;;;28.30;65.70;;;29.09;49.39;95082.81;5091553;28;20569;-40
2023/07/17 02:41:00;;;;;;;0.30;0.30;;;28.30;65.70;;;29.10;49.31;95078.22;5057973;28;20244;-41
2023/07/17 02:43:28;;;;;;;0.25;0.25;;;28.30;65.70;;;29.08;49.40;95087.41;5075606;28;20226;-41
2023/07/17 02:45:55;;;;;;;0.30;0.30;;;28.30;65.70;;;29.10;49.88;95089.81;5075574;28;20181;-41
2023/07/17 02:48:23;;;;;;;0.30;0.30;;;28.30;65.70;;;29.08;49.96;95084.72;5074653;28;20620;-40
2023/07/17 02:50:51;;;;;;;0.30;0.30;;;28.30;65.70;;;29.08;49.83;95092.03;5075294;28;20202;-41
2023/07/17 02:53:18;;;;;;;0.30;0.30;;;28.30;65.70;;;29.07;49.86;95090.44;5075418;28;20273;-40
2023/07/17 02:55:46;;;;;;;0.30;0.30;;;28.30;65.70;;;29.06;49.86;95084.22;5075829;28;20560;-40
2023/07/17 02:58:19;;;;;;;0.30;0.30;;;28.30;65.60;;;29.05;49.41;95081.81;5074402;28;20296;-40
2023/07/17 03:00:46;;;;;;;0.20;0.20;;;28.30;65.80;;;29.04;49.41;95072.94;5074320;28;20209;-40
2023/07/17 03:03:14;;;;;;;0.30;0.30;;;28.30;65.80;;;29.04;49.92;95083.72;5075243;28;20190;-41
2023/07/17 03:05:42;;;;;;;0.20;0.20;;;28.30;65.90;;;29.03;49.90;95079.44;5074263;28;20197;-41
2023/07/17 03:08:10;;;;;;;0.22;0.22;;;28.30;65.70;;;29.00;49.29;95073.84;5074256;28;20201;-40
2023/07/17 03:10:38;;;;;;;0.30;0.30;;;28.30;65.60;;;28.98;49.73;95076.84;5075081;28;20189;-41
2023/07/17 03:13:05;;;;;;;0.40;0.40;;;28.30;65.80;;;28.97;49.87;95079.88;5074182;28;20206;-40
2023/07/17 03:15:32;;;;;;;0.20;0.20;;;28.30;65.80;;;28.96;50.28;95084.44;5090982;28;20266;-41
2023/07/17 03:17:59;;;;;;;0.30;0.30;;;28.20;65.90;;;28.97;50.27;95079.88;5074043;28;20291;-40
2023/07/17 03:20:27;;;;;;;0.30;0.30;;;28.20;66.00;;;28.96;49.98;95079.06;5090804;28;20213;-41
2023/07/17 03:22:54;;;;;;;0.20;0.20;;;28.20;65.90;;;28.96;49.69;95070.16;5075056;28;20189;-40
2023/07/17 03:25:22;;;;;;;0.20;0.20;;;28.20;65.80;;;28.93;49.61;95068.88;5074034;28;20292;-40
2023/07/17 03:27:49;;;;;;;0.30;0.30;;;28.20;65.70;;;28.90;50.03;95072.19;5075212;28;20541;-40
2023/07/17 03:30:17;;;;;;;0.22;0.22;;;28.20;65.80;;;28.88;49.70;95075.19;5074782;28;20197;-40
2023/07/17 03:32:44;;;;;;;0.30;0.30;;;28.20;65.90;;;28.88;49.76;95080.59;5074782;28;20194;-41
2023/07/17 03:35:12;;;;;;;0.30;0.30;;;28.20;65.90;;;28.85;49.79;95091.97;5075174;28;20193;-40
2023/07/17 03:37:39;;;;;;;0.30;0.30;;;28.20;65.90;;;28.83;50.04;95101.50;5090960;28;20239;-40
2023/07/17 03:40:07;;;;;;;0.28;0.28;;;28.20;66.00;;;28.82;50.38;95106.09;5073901;28;20192;-41
2023/07/17 03:42:34;;;;;;;0.20;0.20;;;28.10;65.90;;;28.81;50.21;95103.69;5074726;28;20190;-40
2023/07/17 03:45:04;;;;;;;0.30;0.30;;;28.10;66.00;;;28.79;50.51;95095.91;5073706;28;20693;-41
2023/07/17 03:47:33;;;;;;;0.20;0.20;;;28.10;66.00;;;28.79;50.39;95103.22;5090902;28;20220;-41
2023/07/17 03:50:02;;;;;;;0.30;0.30;;;28.10;66.10;;;28.75;49.94;95109.19;5074128;28;20229;-41
2023/07/17 03:52:30;;;;;;;0.30;0.30;;;28.10;66.10;;;28.73;50.53;95110.59;5057146;28;20216;-41
2023/07/17 03:54:57;;;;;;;0.30;0.30;;;28.10;66.10;;;28.70;50.04;95108.53;5090631;28;20209;-44
2023/07/17 03:57:24;;;;;;;0.28;0.28;;;28.00;66.10;;;28.67;50.62;95117.97;5073662;28;20315;-40
2023/07/17 03:59:56;;;;;;;0.30;0.30;;;28.00;66.10;;;28.65;50.71;95120.19;5073684;28;20536;-41
2023/07/17 04:02:39;;;;;;;0.30;0.30;;;28.00;66.20;;;28.62;50.56;95120.78;5074505;28;20177;-41
2023/07/17 04:05:10;;;;;;;0.20;0.20;;;28.00;66.20;;;28.60;50.69;95123.00;5090499;28;20287;-41
2023/07/17 04:07:37;;;;;;;0.20;0.20;;;28.00;66.10;;;28.59;50.73;95124.09;5073611;28;20197;-40
2023/07/17 04:10:05;;;;;;;0.28;0.28;;;28.00;66.20;;;28.59;50.77;95129.50;5073633;28;20755;-41
2023/07/17 04:12:32;;;;;;;0.20;0.20;;;28.00;66.20;;;28.58;50.93;95127.91;5073442;28;20206;-40
2023/07/17 04:14:59;;;;;;;0.20;0.20;;;27.90;66.30;;;28.55;50.19;95125.78;5090393;28;20236;-41
2023/07/17 04:17:27;;;;;;;0.28;0.28;;;27.90;66.30;;;28.53;50.94;95128.81;5090302;28;20660;-41
2023/07/17 04:19:54;;;;;;;0.20;0.20;;;27.90;66.30;;;28.52;50.90;95143.38;5073548;28;20201;-40
2023/07/17 04:22:21;;;;;;;0.20;0.20;;;27.90;66.30;;;28.50;50.35;95136.69;5073321;28;20219;-41
2023/07/17 04:24:49;;;;;;;0.30;0.30;;;27.90;66.40;;;28.50;50.59;95134.78;5073616;28;20204;-41
2023/07/17 04:27:16;;;;;;;0.30;0.30;;;27.80;66.30;;;28.49;51.07;95135.09;5073451;28;20555;-40
2023/07/17 04:29:46;;;;;;;0.30;0.30;;;27.80;66.40;;;28.48;50.51;95133.50;5074006;28;20207;-41
2023/07/17 04:32:14;;;;;;;0.20;0.20;;;27.80;66.40;;;28.47;50.38;95138.09;5074413;28;20197;-40
2023/07/17 04:34:41;;;;;;;0.30;0.30;;;27.80;66.40;;;28.46;51.03;95141.09;5074591;28;20200;-40
2023/07/17 04:37:10;;;;;;;0.20;0.20;;;27.80;66.40;;;28.47;50.44;95140.00;5073278;28;20234;-40
2023/07/17 04:39:37;;;;;;;0.30;0.30;;;27.80;66.50;;;28.47;50.52;95143.50;5074351;28;20200;-40
2023/07/17 04:42:05;;;;;;;0.30;0.30;;;27.80;66.40;;;28.48;51.15;95144.28;5075444;28;20200;-37
2023/07/17 04:44:32;;;;;;;0.28;0.28;;;27.80;66.50;;;28.46;51.05;95146.50;5094116;28;20256;-36
2023/07/17 04:47:02;;;;;;;0.30;0.30;;;27.80;66.60;;;28.46;50.44;95155.38;5077769;28;20214;-37
2023/07/17 04:49:29;;;;;;;0.30;0.30;;;27.80;66.70;;;28.46;51.20;95160.00;5078161;28;20201;-38
2023/07/17 04:51:57;;;;;;;0.40;0.40;;;27.80;66.60;;;28.45;50.56;95164.56;5094095;28;20643;-37
2023/07/17 04:54:24;;;;;;;0.20;0.20;;;27.80;66.60;;;28.44;50.64;95157.56;5077172;28;20205;-37
2023/07/17 04:56:52;;;;;;;0.20;0.20;;;27.80;66.50;;;28.43;50.97;95169.50;5077031;28;20653;-37
2023/07/17 04:59:21;;;;;;;0.20;0.20;;;27.70;66.50;;;28.41;51.29;95177.06;5077333;28;20636;-37
2023/07/17 05:01:48;;;;;;;0.20;0.20;;;27.70;66.70;;;28.40;51.19;95187.06;5078082;28;20191;-37
2023/07/17 05:04:16;;;;;;;0.20;0.20;;;27.70;66.70;;;28.39;51.39;95181.97;5093801;28;20300;-37
2023/07/17 05:06:43;;;;;;;0.30;0.30;;;27.70;66.70;;;28.39;50.72;95171.16;5077000;28;20600;-37
2023/07/17 05:09:10;;;;;;;0.30;0.30;;;27.70;66.70;;;28.37;50.88;95179.56;5076843;28;20238;-37
2023/07/17 05:11:39;;;;;;;0.22;0.22;;;27.70;66.80;;;28.38;50.87;95186.56;5076736;28;20203;-37
2023/07/17 05:14:06;;;;;;;0.30;0.30;;;27.70;66.80;;;28.39;51.52;95184.66;5077791;28;20199;-37
2023/07/17 05:16:35;;;;;;;0.30;0.30;;;27.70;66.90;;;28.39;50.96;95176.56;5076872;28;20285;-36
2023/07/17 05:19:02;;;;;;;0.30;0.30;;;27.70;66.90;;;28.38;51.10;95183.88;5078023;28;20251;-36
2023/07/17 05:21:33;;;;;;;0.30;0.30;;;27.70;66.90;;;28.38;51.01;95174.97;5077697;28;20223;-37
2023/07/17 05:24:01;;;;;;;0.30;0.30;;;27.70;66.80;;;28.36;51.11;95172.56;5076505;28;20631;-37
2023/07/17 05:26:29;;;;;;;0.30;0.30;;;27.70;66.90;;;28.39;51.48;95168.47;5076544;28;20282;-37
2023/07/17 05:28:56;;;;;;;0.28;0.28;;;27.70;66.90;;;28.40;50.91;95161.97;5076730;28;20202;-37
2023/07/17 05:31:23;;;;;;;0.20;0.20;;;27.70;67.00;;;28.41;51.18;95164.38;5077076;28;20202;-37
2023/07/17 05:33:52;;;;;;;0.20;0.20;;;27.70;67.10;;;28.42;51.52;95174.06;5076443;28;20237;-37
2023/07/17 05:36:19;;;;;;;0.30;0.30;;;27.70;67.10;;;28.44;51.04;95176.47;5076536;28;20253;-37
2023/07/17 05:38:47;;;;;;;0.30;0.30;;;27.70;67.20;;;28.46;51.55;95178.88;5076432;28;20201;-37
2023/07/17 05:41:14;;;;;;;0.30;0.30;;;27.70;67.10;;;28.46;51.67;95162.69;5076292;28;20196;-37
2023/07/17 05:43:41;;;;;;;0.30;0.30;;;27.70;67.20;;;28.47;51.57;95162.38;5075994;28;20307;-37
2023/07/17 05:46:11;;;;;;;0.30;0.30;;;27.70;68.00;;;28.49;51.79;95164.78;5076329;28;20246;-37
2023/07/17 05:48:39;;;;;;;0.20;0.20;;;27.80;67.10;;;28.49;51.26;95164.78;5093829;28;20652;-37
2023/07/17 05:51:08;;;;;;;0.30;0.30;;;27.80;67.20;;;28.49;51.92;95160.19;5077143;28;20189;-37
2023/07/17 05:53:36;;;;;;;0.20;0.20;;;27.80;67.30;;;28.49;51.75;95157.50;5060273;28;20194;-37
2023/07/17 05:56:03;;;;;;;0.30;0.30;;;27.80;67.30;;;28.53;51.29;95163.09;5077045;28;20199;-37
2023/07/17 05:58:34;;;;;;;0.30;0.30;;;27.80;67.30;;;28.54;51.99;95165.47;5075881;28;20220;-37
2023/07/17 06:01:01;;;;;;;0.25;0.25;;;27.80;67.40;;;28.56;51.46;95165.19;5075950;28;20195;-36
2023/07/17 06:03:29;;;;;;;0.20;0.20;;;27.80;67.30;;;28.57;51.54;95161.38;5092413;28;20346;-37
2023/07/17 06:05:57;;;;;;;0.20;0.20;;;27.80;67.40;;;28.57;51.71;95159.47;5076525;28;20561;-37
2023/07/17 06:08:24;;;;;;;0.20;0.20;;;27.90;67.60;;;28.57;51.88;95156.78;5076486;28;20270;-37
2023/07/17 06:10:51;;;;;;;0.30;0.30;;;27.90;67.50;;;28.59;51.70;95161.88;5076471;28;20208;-37
2023/07/17 06:13:20;;;;;;;0.32;0.32;;;27.90;67.50;;;28.60;52.14;95164.28;5076370;28;20284;-37
2023/07/17 06:15:47;;;;;;;0.30;0.30;;;27.90;67.50;;;28.61;51.60;95162.38;5075343;28;20207;-36
2023/07/17 06:18:15;;;;;;;0.30;0.30;;;27.90;67.60;;;28.63;52.34;95173.66;5076297;28;20222;-37
2023/07/17 06:20:42;;;;;;;0.20;0.20;;;28.00;67.70;;;28.65;51.75;95181.47;5075346;28;20188;-36
2023/07/17 06:23:09;;;;;;;0.30;0.30;;;28.00;67.70;;;28.66;51.82;95183.06;5092010;28;20290;-36
2023/07/17 06:25:38;;;;;;;0.20;0.20;;;28.00;67.70;;;28.68;52.44;95178.19;5075409;28;20203;-36
2023/07/17 06:28:07;;;;;;;0.20;0.20;;;28.00;67.70;;;28.67;52.57;95177.34;5075250;28;20275;-36
2023/07/17 06:30:35;;;;;;;0.28;0.28;;;28.00;67.80;;;28.69;52.00;95175.19;5075391;28;20205;-36
2023/07/17 06:33:02;;;;;;;0.20;0.20;;;28.00;67.80;;;28.70;51.87;95176.00;5075109;28;20192;-36
2023/07/17 06:35:30;;;;;;;0.30;0.30;;;28.00;67.80;;;28.72;52.15;95169.22;5076325;28;20196;-36
2023/07/17 06:37:57;;;;;;;0.20;0.20;;;28.10;68.70;;;28.73;52.44;95156.50;5076344;28;20645;-36
2023/07/17 06:40:24;;;;;;;0.22;0.22;;;28.10;67.80;;;28.75;52.31;95157.78;5074967;28;20186;-37
2023/07/17 06:42:51;;;;;;;0.20;0.20;;;28.10;68.80;;;28.77;52.03;95156.69;5076238;28;20206;-37
2023/07/17 06:45:18;;;;;;;0.20;0.20;;;28.10;67.90;;;28.78;52.14;95163.69;5075712;28;20309;-36
2023/07/17 06:47:45;;;;;;;0.20;0.20;;;28.10;68.80;;;28.79;51.92;95165.31;5074918;28;20249;-36
2023/07/17 06:50:12;;;;;;;0.30;0.30;;;28.10;67.80;;;28.81;52.39;95168.47;5091574;28;20242;-37
2023/07/17 06:52:41;;;;;;;0.20;0.20;;;28.10;67.70;;;28.83;52.46;95171.69;5074917;28;20218;-37
2023/07/17 06:55:09;;;;;;;0.20;0.20;;;28.20;67.80;;;28.84;52.11;95182.16;5075549;28;20628;-37
2023/07/17 06:57:36;;;;;;;0.30;0.30;;;28.10;68.60;;;28.85;52.17;95183.00;5075801;28;20554;-36
2023/07/17 07:00:05;;;;;;;0.20;0.20;;;28.20;67.80;;;28.85;51.96;95177.59;5075820;28;20217;-38
2023/07/17 07:02:33;;;;;;;0.30;0.30;;;28.20;67.80;;;28.86;52.42;95171.88;5075382;28;20624;-36
2023/07/17 07:05:01;;;;;;;0.20;0.20;;;28.20;67.80;;;28.88;52.25;95171.56;5075108;28;20203;-36
2023/07/17 07:07:28;;;;;;;0.30;0.30;;;28.20;67.80;;;28.88;51.93;95175.09;5091601;28;20216;-36
2023/07/17 07:09:55;;;;;;;0.30;0.30;;;28.20;67.70;;;28.90;52.12;95180.16;5075430;28;20202;-37
2023/07/17 07:12:22;;;;;;;0.20;0.20;;;28.20;67.80;;;28.90;52.45;95175.56;5075190;28;20652;-36
2023/07/17 07:14:50;;;;;;;0.30;0.30;;;28.30;67.70;;;28.93;52.02;95182.28;5074548;28;20223;-36
2023/07/17 07:17:17;;;;;;;0.20;0.20;;;28.30;67.80;;;28.94;51.81;95181.16;5075205;28;20230;-37
2023/07/17 07:19:44;;;;;;;0.30;0.30;;;28.30;67.80;;;28.96;51.79;95189.75;5075464;28;20275;-37
2023/07/17 07:22:11;;;;;;;0.30;0.30;;;28.30;67.70;;;28.96;51.86;95187.06;5074276;28;20187;-36
2023/07/17 07:24:41;;;;;;;0.30;0.30;;;28.30;67.70;;;28.99;52.45;95201.84;5074247;28;20198;-37
2023/07/17 07:27:08;;;;;;;0.20;0.20;;;28.30;67.80;;;28.99;52.31;95210.78;5075259;28;20282;-37
2023/07/17 07:29:35;;;;;;;0.32;0.32;;;28.30;67.70;;;28.99;51.85;95212.66;5074348;28;20249;-36
2023/07/17 07:32:03;;;;;;;0.20;0.20;;;28.30;67.70;;;28.98;52.02;95206.47;5075040;28;20274;-36
2023/07/17 07:34:30;;;;;;;0.25;0.25;;;28.30;67.70;;;28.99;51.78;95218.88;5075092;28;20190;-36
2023/07/17 07:36:57;;;;;;;0.30;0.30;;;28.40;67.80;;;28.99;52.40;95229.69;5075284;28;20277;-37
2023/07/17 07:39:24;;;;;;;0.25;0.25;;;28.30;67.70;;;29.00;51.84;95238.56;5075125;28;20225;-37
2023/07/17 07:41:51;;;;;;;0.30;0.30;;;28.40;67.70;;;28.99;51.83;95245.88;5075082;28;20491;-37
2023/07/17 07:44:18;;;;;;;0.30;0.30;;;28.40;67.70;;;28.99;51.99;95245.06;5075072;28;20314;-36
2023/07/17 07:46:45;;;;;;;0.20;0.20;;;28.30;67.70;;;28.99;52.39;95251.28;5074888;28;20539;-37
2023/07/17 07:49:13;;;;;;;0.20;0.20;;;28.40;67.70;;;28.99;52.57;95245.88;5074235;28;20696;-36
2023/07/17 07:51:40;;;;;;;0.20;0.20;;;28.40;67.80;;;29.00;52.33;95238.56;5075515;28;20293;-37
2023/07/17 07:54:07;;;;;;;0.20;0.20;;;28.40;67.60;;;29.00;51.87;95249.38;5073805;28;20198;-37
2023/07/17 07:56:47;;;;;;;0.20;0.20;;;28.40;67.80;;;29.01;51.86;95253.66;5075246;28;20269;-37
2023/07/17 07:59:14;;;;;;;0.20;0.20;;;28.40;67.80;;;29.01;52.34;95272.56;5074754;28;20306;-37
2023/07/17 08:01:41;;;;;;;0.20;0.20;;;28.40;67.70;;;29.02;52.43;95283.06;5074771;28;20573;-37
2023/07/17 08:04:09;;;;;;;0.30;0.30;;;28.40;67.70;;;29.02;52.40;95298.47;5074683;28;20574;-37
2023/07/17 08:06:36;;;;;;;0.30;0.30;;;28.40;67.70;;;29.02;52.56;95306.59;5074861;28;20199;-36
2023/07/17 08:09:03;;;;;;;0.20;0.20;;;28.40;67.70;;;29.01;51.70;95300.38;5074007;28;20570;-37
2023/07/17 08:11:30;;;;;;;0.20;0.20;;;28.40;68.60;;;29.02;52.26;95293.88;5074182;28;20300;-36
2023/07/17 08:13:58;;;;;;;0.30;0.30;;;28.40;67.80;;;29.03;52.57;95300.09;5074688;28;20202;-37
2023/07/17 08:16:25;;;;;;;0.40;0.40;;;28.40;67.80;;;29.03;52.00;95298.19;5076305;28;20194;-37
2023/07/17 08:18:52;;;;;;;0.30;0.30;;;28.40;67.70;;;29.04;52.56;95294.38;5078555;28;20225;-37
2023/07/17 08:21:19;;;;;;;0.20;0.20;;;28.40;67.80;;;29.05;52.12;95309.50;5078528;28;20281;-36
2023/07/17 08:23:46;;;;;;;0.20;0.20;;;28.40;67.80;;;29.05;52.54;95314.88;5078322;28;20248;-36
2023/07/17 08:26:13;;;;;;;0.20;0.20;;;28.40;67.70;;;29.06;52.46;95321.06;5078807;28;20224;-37
2023/07/17 08:28:41;;;;;;;0.30;0.30;;;28.40;67.80;;;29.06;51.83;95321.06;5079006;28;20257;-37
2023/07/17 08:31:08;;;;;;;0.20;0.20;;;28.40;67.80;;;29.07;52.45;95328.88;5078925;28;20198;-37
2023/07/17 08:33:35;;;;;;;0.20;0.20;;;28.40;67.90;;;29.07;52.18;95336.97;5077360;28;20225;-36
2023/07/17 08:36:03;;;;;;;0.30;0.30;;;28.40;67.70;;;29.08;51.83;95335.09;5078299;28;20193;-37
2023/07/17 08:38:31;;;;;;;0.30;0.30;;;28.40;67.60;;;29.08;51.79;95343.97;5078424;28;20597;-36
2023/07/17 08:40:59;;;;;;;0.20;0.20;;;28.40;67.60;;;29.07;52.44;95347.78;5078104;28;20197;-36
2023/07/17 08:43:28;;;;;;;0.32;0.32;;;28.40;67.70;;;29.07;51.92;95349.69;5077949;28;20308;-36
2023/07/17 08:45:55;;;;;;;0.30;0.30;;;28.40;67.80;;;29.08;52.40;95362.09;5061173;28;20273;-36
2023/07/17 08:48:27;;;;;;;0.30;0.30;;;28.40;67.80;;;29.07;52.01;95368.59;5077860;28;20204;-37
2023/07/17 08:50:56;;;;;;;0.22;0.22;;;28.40;67.70;;;29.07;51.96;95366.69;5060703;28;20217;-37
2023/07/17 08:53:27;;;;;;;0.20;0.20;;;28.40;67.60;;;29.06;51.85;95375.91;5077044;28;20225;-36
2023/07/17 08:55:56;;;;;;;0.20;0.20;;;28.40;67.60;;;29.05;51.54;95368.09;5078003;28;20506;-36
2023/07/17 08:58:24;;;;;;;0.40;0.40;;;28.40;67.50;;;29.03;52.49;95364.91;5077001;28;20320;-36
2023/07/17 09:00:51;;;;;;;0.22;0.22;;;28.40;67.50;;;29.05;52.28;95365.38;5077918;28;20632;-36
2023/07/17 09:03:19;;;;;;;0.30;0.30;;;28.30;67.50;;;29.03;51.97;95365.69;5076807;28;20270;-36
2023/07/17 09:05:46;;;;;;;0.25;0.25;;;28.30;67.50;;;29.03;52.28;95362.22;5077645;28;20618;-37
2023/07/17 09:08:14;;;;;;;0.30;0.30;;;28.40;67.50;;;29.01;51.57;95367.09;5077980;28;20196;-37
2023/07/17 09:10:41;;;;;;;0.28;0.28;;;28.40;67.50;;;29.00;52.00;95373.59;5077807;28;20196;-36
2023/07/17 09:13:09;;;;;;;0.30;0.30;;;28.30;67.40;;;29.00;51.57;95389.78;5093475;28;20207;-37
2023/07/17 09:15:36;;;;;;;0.30;0.30;;;28.30;67.50;;;28.97;52.20;95393.91;5077861;28;20195;-36
2023/07/17 09:18:03;;;;;;;0.25;0.25;;;28.30;67.50;;;28.96;52.07;95396.91;5078049;28;20251;-37
2023/07/17 09:20:30;;;;;;;0.22;0.22;;;28.30;67.40;;;28.93;51.92;95387.50;5077721;28;20286;-36
2023/07/17 09:23:01;;;;;;;0.20;0.20;;;28.20;67.40;;;28.91;51.76;95368.09;5077590;28;20228;-37
2023/07/17 09:25:30;;;;;;;0.30;0.30;;;28.20;67.50;;;28.89;51.96;95363.00;5076499;28;20254;-36
2023/07/17 09:27:58;;;;;;;0.20;0.20;;;28.20;67.40;;;28.88;52.08;95361.38;5077311;28;20279;-37
2023/07/17 09:30:27;;;;;;;0.20;0.20;;;28.20;67.40;;;28.87;51.81;95346.28;5077335;28;20231;-37
2023/07/17 09:33:05;;;;;;;0.30;0.30;;;28.20;67.40;;;28.88;51.96;95336.25;5077084;28;20192;-37
2023/07/17 09:35:32;;;;;;;0.30;0.30;;;28.20;67.50;;;28.88;51.46;95325.47;5076671;28;20199;-36
2023/07/17 09:37:59;;;;;;;0.30;0.30;;;28.20;67.50;;;28.88;51.85;95347.88;5077343;28;20293;-37
2023/07/17 09:40:28;;;;;;;0.20;0.20;;;28.20;67.60;;;28.87;52.36;95351.69;5077683;28;20292;-40
2023/07/17 09:42:56;;;;;;;0.22;0.22;;;28.20;67.70;;;28.88;52.34;95344.38;5076688;28;20190;-39
2023/07/17 09:45:24;;;;;;;0.20;0.20;;;28.10;67.70;;;28.90;51.91;95342.19;5077016;28;20324;-36
2023/07/17 09:47:52;;;;;;;0.30;0.30;;;28.20;67.80;;;28.88;51.60;95337.09;5076355;28;20212;-36
2023/07/17 09:50:22;;;;;;;0.30;0.30;;;28.20;67.90;;;28.90;52.34;95313.25;5076403;28;20573;-37
2023/07/17 09:52:50;;;;;;;0.28;0.28;;;28.20;67.90;;;28.91;52.51;95304.06;5076082;28;20198;-41
2023/07/17 09:55:25;;;;;;;0.30;0.30;;;28.20;68.10;;;28.92;52.47;95307.59;5076477;28;20287;-39
2023/07/17 09:57:57;;;;;;;0.20;0.20;;;28.20;68.20;;;28.94;52.79;95296.47;5075623;28;20214;-39
2023/07/17 10:00:27;;;;;;;0.20;0.20;;;28.20;68.10;;;28.94;52.95;95294.56;5076812;28;20183;-40
2023/07/17 10:03:13;;;;;;;0.30;0.30;;;28.20;68.20;;;28.95;52.44;95279.97;5075543;28;20189;-40
2023/07/17 10:05:41;;;;;;;0.22;0.22;;;28.20;68.40;;;28.97;52.19;95280.47;5077161;28;20217;-38
2023/07/17 10:08:10;;;;;;;0.30;0.30;;;28.20;68.20;;;28.99;52.22;95277.47;5092766;28;20189;-39
2023/07/17 10:10:38;;;;;;;0.30;0.30;;;28.30;69.20;;;29.00;52.81;95276.38;5076508;28;20538;-39
2023/07/17 10:13:08;;;;;;;0.30;0.30;;;28.30;68.30;;;29.00;53.06;95277.19;5076108;28;20250;-39
2023/07/17 10:15:36;;;;;;;0.30;0.30;;;28.30;68.30;;;29.03;52.23;95283.88;5075672;28;20259;-40
2023/07/17 10:18:10;;;;;;;0.30;0.30;;;28.30;68.20;;;29.03;52.50;95273.88;5075439;28;20270;-40
2023/07/17 10:20:38;;;;;;;0.20;0.20;;;28.30;68.30;;;29.06;52.62;95277.88;5076886;28;20526;-37
2023/07/17 10:23:26;;;;;;;0.30;0.30;;;28.40;68.40;;;29.05;52.98;95273.56;5076929;28;20247;-36